createdAt,value
2022-08-25T00:02:15.300Z,2.67
2022-08-25T00:05:05.287Z,3.33
2022-08-25T00:07:52.200Z,2.63
2022-08-25T00:10:39.999Z,3.75
2022-08-25T00:13:25.889Z,2.38
2022-08-25T00:16:14.222Z,5.65
2022-08-25T00:19:04.348Z,4.40
2022-08-25T00:21:50.014Z,3.17
2022-08-25T00:24:36.230Z,2.97
2022-08-25T00:27:21.974Z,6.88
2022-08-25T00:30:08.569Z,5.07
2022-08-25T00:32:57.304Z,5.55
2022-08-25T00:35:43.333Z,3.00
2022-08-25T00:38:28.793Z,4.10
2022-08-25T00:41:20.555Z,2.97
2022-08-25T00:44:09.173Z,4.05
2022-08-25T00:46:58.457Z,4.35
2022-08-25T00:49:47.716Z,1.58
2022-08-25T00:52:43.029Z,3.78
2022-08-25T00:55:35.948Z,1.75
2022-08-25T00:58:27.957Z,5.95
2022-08-25T01:01:13.413Z,2.80
2022-08-25T01:03:59.150Z,5.78
2022-08-25T01:06:45.764Z,8.55
2022-08-25T01:09:32.944Z,7.80
2022-08-25T01:12:19.285Z,2.15
2022-08-25T01:15:07.396Z,2.03
2022-08-25T01:17:55.681Z,4.75
2022-08-25T01:20:41.811Z,3.47
2022-08-25T01:23:27.893Z,3.28
2022-08-25T01:26:21.156Z,3.47
2022-08-25T01:29:22.610Z,4.68
2022-08-25T01:32:12.077Z,3.33
2022-08-25T01:34:57.754Z,5.97
2022-08-25T01:37:43.868Z,4.18
2022-08-25T01:40:30.535Z,4.15
2022-08-25T01:43:21.761Z,2.70
2022-08-25T01:46:08.059Z,6.68
2022-08-25T01:48:54.026Z,3.10
2022-08-25T01:51:54.046Z,4.03
2022-08-25T01:54:39.677Z,4.22
2022-08-25T01:57:25.321Z,3.42
2022-08-25T02:00:14.153Z,1.60
2022-08-25T02:03:00.433Z,8.35
2022-08-25T02:05:48.062Z,1.63
2022-08-25T02:08:35.146Z,2.88
2022-08-25T02:11:22.070Z,1.90
2022-08-25T02:14:08.725Z,3.38
2022-08-25T02:16:55.224Z,4.40
2022-08-25T02:19:41.240Z,1.90
2022-08-25T02:22:27.105Z,5.65
2022-08-25T02:25:12.315Z,6.03
2022-08-25T02:27:58.404Z,8.38
2022-08-25T02:30:44.320Z,4.03
2022-08-25T02:33:30.134Z,2.05
2022-08-25T02:36:16.500Z,5.82
2022-08-25T02:39:04.144Z,1.63
2022-08-25T02:41:50.397Z,3.22
2022-08-25T02:44:36.110Z,1.67
2022-08-25T02:47:26.949Z,2.38
2022-08-25T02:50:12.993Z,5.07
2022-08-25T02:52:59.165Z,1.80
2022-08-25T02:55:45.617Z,3.35
2022-08-25T02:58:31.681Z,2.40
2022-08-25T03:01:18.126Z,2.35
2022-08-25T03:04:04.143Z,4.47
2022-08-25T03:06:50.064Z,6.65
2022-08-25T03:09:35.947Z,2.83
2022-08-25T03:12:23.773Z,6.82
2022-08-25T03:15:13.105Z,7.22
2022-08-25T03:17:59.968Z,5.78
2022-08-25T03:20:45.973Z,4.18
2022-08-25T03:23:31.908Z,2.85
2022-08-25T03:26:36.593Z,2.97
2022-08-25T03:29:24.962Z,6.45
2022-08-25T03:32:10.622Z,4.53
2022-08-25T03:34:56.737Z,5.90
2022-08-25T03:37:42.109Z,4.43
2022-08-25T03:40:28.567Z,2.67
2022-08-25T03:43:14.494Z,2.50
2022-08-25T03:46:00.343Z,3.17
2022-08-25T03:48:46.778Z,5.55
2022-08-25T03:51:35.979Z,4.95
2022-08-25T03:54:24.221Z,3.70
2022-08-25T03:57:10.594Z,5.32
2022-08-25T03:59:56.505Z,2.63
2022-08-25T04:02:42.507Z,4.18
2022-08-25T04:05:28.222Z,6.25
2022-08-25T04:08:14.229Z,5.85
2022-08-25T04:11:04.886Z,3.78
2022-08-25T04:13:52.344Z,8.93
2022-08-25T04:16:38.353Z,6.28
2022-08-25T04:19:23.962Z,6.95
2022-08-25T04:22:09.913Z,5.75
2022-08-25T04:24:55.512Z,8.10
2022-08-25T04:27:41.937Z,4.30
2022-08-25T04:30:28.010Z,8.95
2022-08-25T04:33:13.948Z,4.30
2022-08-25T04:35:59.994Z,9.27
2022-08-25T04:38:46.876Z,5.93
2022-08-25T04:41:32.721Z,7.07
2022-08-25T04:44:18.473Z,2.92
2022-08-25T04:47:04.735Z,5.45
2022-08-25T04:49:50.820Z,2.45
2022-08-25T04:52:37.598Z,7.13
2022-08-25T04:55:24.077Z,5.43
2022-08-25T04:58:14.694Z,6.45
2022-08-25T05:01:12.013Z,12.57
2022-08-25T05:04:00.665Z,5.50
2022-08-25T05:06:46.662Z,8.80
2022-08-25T05:09:33.067Z,3.45
2022-08-25T05:12:20.292Z,5.50
2022-08-25T05:15:26.120Z,6.53
2022-08-25T05:18:12.351Z,9.85
2022-08-25T05:21:03.405Z,6.82
2022-08-25T05:23:49.305Z,16.23
2022-08-25T05:26:36.715Z,4.85
2022-08-25T05:29:22.636Z,7.97
2022-08-25T05:32:08.574Z,7.47
2022-08-25T05:34:54.527Z,6.97
2022-08-25T05:37:40.423Z,8.20
2022-08-25T05:40:26.485Z,6.85
2022-08-25T05:43:14.656Z,7.50
2022-08-25T05:46:00.470Z,9.73
2022-08-25T05:48:46.481Z,13.85
2022-08-25T05:51:32.329Z,9.07
2022-08-25T05:54:18.369Z,14.02
2022-08-25T05:57:04.470Z,7.47
2022-08-25T05:59:50.445Z,15.25
2022-08-25T06:02:48.369Z,13.07
2022-08-25T06:05:34.108Z,12.52
2022-08-25T06:08:19.929Z,16.38
2022-08-25T06:11:05.740Z,15.95
2022-08-25T06:13:51.626Z,24.98
2022-08-25T06:16:38.901Z,11.32
2022-08-25T06:19:24.505Z,8.75
2022-08-25T06:22:10.436Z,6.68
2022-08-25T06:24:56.026Z,7.90
2022-08-25T06:27:42.140Z,9.38
2022-08-25T06:30:28.999Z,13.40
2022-08-25T06:33:15.629Z,5.10
2022-08-25T06:36:01.409Z,10.88
2022-08-25T06:38:48.117Z,3.17
2022-08-25T06:41:33.749Z,4.90
2022-08-25T06:44:24.013Z,10.25
2022-08-25T06:47:09.855Z,8.07
2022-08-25T06:49:55.656Z,5.95
2022-08-25T06:52:41.210Z,9.50
2022-08-25T06:55:27.193Z,7.78
2022-08-25T06:58:13.022Z,7.80
2022-08-25T07:01:20.640Z,6.70
2022-08-25T07:04:11.821Z,3.10
2022-08-25T07:06:59.388Z,5.82
2022-08-25T07:09:45.354Z,4.88
2022-08-25T07:12:32.204Z,6.15
2022-08-25T07:15:20.358Z,9.82
2022-08-25T07:18:08.168Z,2.78
2022-08-25T07:20:54.051Z,6.00
2022-08-25T07:23:41.947Z,5.45
2022-08-25T07:26:37.768Z,8.15
2022-08-25T07:29:32.835Z,4.32
2022-08-25T07:32:18.679Z,1.67
2022-08-25T07:35:15.384Z,4.55
2022-08-25T07:38:01.527Z,4.53
2022-08-25T07:40:54.531Z,6.75
2022-08-25T07:43:43.197Z,5.93
2022-08-25T07:46:28.743Z,6.28
2022-08-25T07:49:16.937Z,7.75
2022-08-25T07:52:06.059Z,4.32
2022-08-25T07:54:54.228Z,3.83
2022-08-25T07:57:40.884Z,13.88
2022-08-25T08:00:29.915Z,6.35
2022-08-25T08:03:29.439Z,3.92
2022-08-25T08:06:24.322Z,10.98
2022-08-25T08:09:12.199Z,4.40
2022-08-25T08:11:57.696Z,4.97
2022-08-25T08:14:45.026Z,3.38
2022-08-25T08:17:32.036Z,3.72
2022-08-25T08:20:17.802Z,8.32
2022-08-25T08:23:09.099Z,4.82
2022-08-25T08:25:57.788Z,12.18
2022-08-25T08:28:43.604Z,2.72
2022-08-25T08:31:29.358Z,6.15
2022-08-25T08:34:16.119Z,3.40
2022-08-25T08:37:03.338Z,5.95
2022-08-25T08:39:49.214Z,3.55
2022-08-25T08:42:46.988Z,2.60
2022-08-25T08:45:44.371Z,6.80
2022-08-25T08:48:42.257Z,5.72
2022-08-25T08:51:39.851Z,2.47
2022-08-25T08:54:29.348Z,3.92
2022-08-25T08:57:25.581Z,1.95
2022-08-25T09:00:12.077Z,4.72
2022-08-25T09:03:07.057Z,5.22
2022-08-25T09:05:56.965Z,2.03
2022-08-25T09:08:45.024Z,2.53
2022-08-25T09:11:38.457Z,8.88
2022-08-25T09:14:42.615Z,3.47
2022-08-25T09:17:54.679Z,5.93
2022-08-25T09:21:05.857Z,2.80
2022-08-25T09:24:02.269Z,4.40
2022-08-25T09:27:07.568Z,3.25
2022-08-25T09:30:10.280Z,3.00
2022-08-25T09:33:02.154Z,2.40
2022-08-25T09:35:49.645Z,5.75
2022-08-25T09:38:35.628Z,4.70
2022-08-25T09:41:43.657Z,7.70
2022-08-25T09:44:40.285Z,6.85
2022-08-25T09:47:30.495Z,4.10
2022-08-25T09:50:20.129Z,4.13
2022-08-25T09:53:17.524Z,8.05
2022-08-25T09:56:07.524Z,5.50
2022-08-25T09:58:55.333Z,7.50
2022-08-25T10:01:59.064Z,3.45
2022-08-25T10:04:45.059Z,6.80
2022-08-25T10:07:39.612Z,3.13
2022-08-25T10:13:22.954Z,4.43
2022-08-25T10:16:24.764Z,5.18
2022-08-25T10:19:29.182Z,4.03
2022-08-25T10:22:31.807Z,2.95
2022-08-25T10:25:26.843Z,7.80
2022-08-25T10:28:20.423Z,3.90
2022-08-25T10:31:56.081Z,7.82
2022-08-25T10:34:58.193Z,6.05
2022-08-25T10:38:29.436Z,5.93
2022-08-25T10:41:39.362Z,5.30
2022-08-25T10:44:58.272Z,5.63
2022-08-25T10:47:55.747Z,4.60
2022-08-25T10:50:45.483Z,3.95
2022-08-25T10:54:12.767Z,6.47
2022-08-25T10:57:08.150Z,4.28
2022-08-25T11:00:23.136Z,5.70
2022-08-25T11:03:26.839Z,3.65
2022-08-25T11:06:20.453Z,6.45
2022-08-25T11:12:06.761Z,6.28
2022-08-25T11:14:57.423Z,4.57
2022-08-25T11:18:13.980Z,5.38
2022-08-25T11:21:11.933Z,4.07
2022-08-25T11:24:16.429Z,6.68
2022-08-25T11:27:09.466Z,4.90
2022-08-25T11:30:07.086Z,15.45
2022-08-25T11:32:54.470Z,4.40
2022-08-25T11:35:51.364Z,4.88
2022-08-25T11:39:15.398Z,4.55
2022-08-25T11:42:28.901Z,3.95
2022-08-25T11:45:36.790Z,9.30
2022-08-25T11:48:41.060Z,6.10
2022-08-25T11:51:41.834Z,4.43
2022-08-25T11:54:39.308Z,5.32
2022-08-25T11:57:27.321Z,14.88
2022-08-25T12:00:14.768Z,4.95
2022-08-25T12:03:01.781Z,3.45
2022-08-25T12:05:47.917Z,5.00
2022-08-25T12:09:02.876Z,4.00
2022-08-25T12:11:53.809Z,3.55
2022-08-25T12:14:45.617Z,4.90
2022-08-25T12:17:39.439Z,2.67
2022-08-25T12:20:57.641Z,4.47
2022-08-25T12:24:03.957Z,8.23
2022-08-25T12:26:58.386Z,3.33
2022-08-25T12:29:50.391Z,9.80
2022-08-25T12:32:51.360Z,3.70
2022-08-25T12:36:01.533Z,3.97
2022-08-25T12:38:52.027Z,3.80
2022-08-25T12:41:59.989Z,3.53
2022-08-25T12:44:47.973Z,5.88
2022-08-25T12:47:36.015Z,10.65
2022-08-25T12:50:44.550Z,3.47
2022-08-25T12:53:49.710Z,6.82
2022-08-25T12:56:41.062Z,3.85
2022-08-25T12:59:43.685Z,3.20
2022-08-25T13:02:52.854Z,2.70
2022-08-25T13:05:50.611Z,5.45
2022-08-25T13:08:56.305Z,4.95
2022-08-25T13:11:43.291Z,11.43
2022-08-25T13:14:39.040Z,7.00
2022-08-25T13:17:27.434Z,8.63
2022-08-25T13:20:20.585Z,6.20
2022-08-25T13:23:07.178Z,6.38
2022-08-25T13:25:54.506Z,5.25
2022-08-25T13:28:50.652Z,6.40
2022-08-25T13:31:38.729Z,6.90
2022-08-25T13:34:34.833Z,3.67
2022-08-25T13:37:31.346Z,4.97
2022-08-25T13:40:26.271Z,4.45
2022-08-25T13:43:15.036Z,3.83
2022-08-25T13:46:01.044Z,7.85
2022-08-25T13:48:49.419Z,3.67
2022-08-25T13:51:37.002Z,3.63
2022-08-25T13:54:28.701Z,3.30
2022-08-25T13:57:22.317Z,2.30
2022-08-25T14:00:12.011Z,5.40
2022-08-25T14:02:58.349Z,5.57
2022-08-25T14:05:45.518Z,7.28
2022-08-25T14:08:38.933Z,6.65
2022-08-25T14:11:47.792Z,5.30
2022-08-25T14:14:35.180Z,3.78
2022-08-25T14:17:38.586Z,4.07
2022-08-25T14:20:29.211Z,4.28
2022-08-25T14:23:22.544Z,4.55
2022-08-25T14:26:08.604Z,6.90
2022-08-25T14:28:54.368Z,3.33
2022-08-25T14:31:43.776Z,3.97
2022-08-25T14:34:36.794Z,2.45
2022-08-25T14:37:25.388Z,2.03
2022-08-25T14:40:15.464Z,5.88
2022-08-25T14:43:01.000Z,4.65
2022-08-25T14:45:49.019Z,6.85
2022-08-25T14:48:41.311Z,6.97
2022-08-25T14:51:30.562Z,3.58
2022-08-25T14:54:18.694Z,4.25
2022-08-25T14:57:05.131Z,4.43
2022-08-25T14:59:54.262Z,3.45
2022-08-25T15:02:43.724Z,6.55
2022-08-25T15:05:32.313Z,6.28
2022-08-25T15:08:44.739Z,10.25
2022-08-25T15:11:32.284Z,4.90
2022-08-25T15:14:29.212Z,9.02
2022-08-25T15:17:19.590Z,7.63
2022-08-25T15:20:06.306Z,4.35
2022-08-25T15:22:51.846Z,3.15
2022-08-25T15:25:38.205Z,8.82
2022-08-25T15:28:24.813Z,5.45
2022-08-25T15:31:13.030Z,4.63
2022-08-25T15:33:59.474Z,9.05
2022-08-25T15:36:45.813Z,6.45
2022-08-25T15:39:32.791Z,4.90
2022-08-25T15:42:19.476Z,6.15
2022-08-25T15:45:09.106Z,3.55
2022-08-25T15:47:54.590Z,5.38
2022-08-25T15:50:40.775Z,4.63
2022-08-25T15:53:27.968Z,3.67
2022-08-25T15:56:26.468Z,5.18
2022-08-25T15:59:13.545Z,3.35
2022-08-25T16:02:00.557Z,5.07
2022-08-25T16:04:46.185Z,4.25
2022-08-25T16:07:32.249Z,7.47
2022-08-25T16:10:17.994Z,4.28
2022-08-25T16:13:05.556Z,2.85
2022-08-25T16:15:53.090Z,5.97
2022-08-25T16:18:40.496Z,11.68
2022-08-25T16:21:31.654Z,12.30
2022-08-25T16:24:18.572Z,3.42
2022-08-25T16:27:11.339Z,5.80
2022-08-25T16:29:57.698Z,7.38
2022-08-25T16:32:43.624Z,5.10
2022-08-25T16:35:29.558Z,4.75
2022-08-25T16:38:15.411Z,4.53
2022-08-25T16:41:02.302Z,4.28
2022-08-25T16:43:51.081Z,5.20
2022-08-25T16:46:37.342Z,2.83
2022-08-25T16:49:24.367Z,3.38
2022-08-25T16:52:29.211Z,4.53
2022-08-25T16:55:16.976Z,3.88
2022-08-25T16:58:02.860Z,5.50
2022-08-25T17:00:51.156Z,2.55
2022-08-25T17:03:36.973Z,6.10
2022-08-25T17:06:25.241Z,6.22
2022-08-25T17:09:13.845Z,5.45
2022-08-25T17:12:11.413Z,5.35
2022-08-25T17:14:57.306Z,5.22
2022-08-25T17:17:44.086Z,4.45
2022-08-25T17:20:30.887Z,5.70
2022-08-25T17:23:16.436Z,5.22
2022-08-25T17:26:03.305Z,5.47
2022-08-25T17:28:50.785Z,13.38
2022-08-25T17:31:39.610Z,4.85
2022-08-25T17:34:26.647Z,6.18
2022-08-25T17:37:16.687Z,8.65
2022-08-25T17:40:04.678Z,3.90
2022-08-25T17:42:51.669Z,3.88
2022-08-25T17:45:39.066Z,7.38
2022-08-25T17:48:26.234Z,7.38
2022-08-25T17:51:12.424Z,9.82
2022-08-25T17:53:58.338Z,4.15
2022-08-25T17:56:43.910Z,6.43
2022-08-25T17:59:30.310Z,6.93
2022-08-25T18:02:18.631Z,6.72
2022-08-25T18:05:06.331Z,4.70
2022-08-25T18:07:51.909Z,5.30
2022-08-25T18:10:38.599Z,6.82
2022-08-25T18:13:24.365Z,11.63
2022-08-25T18:16:11.780Z,8.65
2022-08-25T18:18:57.554Z,8.57
2022-08-25T18:21:43.672Z,9.18
2022-08-25T18:24:29.690Z,8.75
2022-08-25T18:27:16.496Z,9.73
2022-08-25T18:30:07.536Z,4.65
2022-08-25T18:32:53.631Z,6.88
2022-08-25T18:35:40.480Z,8.20
2022-08-25T18:38:45.895Z,9.43
2022-08-25T18:41:39.042Z,14.15
2022-08-25T18:44:25.821Z,5.68
2022-08-25T18:47:11.654Z,11.40
2022-08-25T18:50:00.574Z,12.63
2022-08-25T18:52:50.384Z,15.18
2022-08-25T18:55:43.307Z,7.50
2022-08-25T18:58:29.868Z,13.43
2022-08-25T19:01:16.826Z,19.13
2022-08-25T19:04:04.876Z,14.18
2022-08-25T19:06:51.880Z,15.48
2022-08-25T19:09:37.456Z,18.65
2022-08-25T19:12:23.471Z,9.93
2022-08-25T19:15:09.706Z,15.77
2022-08-25T19:17:56.669Z,14.77
2022-08-25T19:20:43.630Z,20.50
2022-08-25T19:23:29.470Z,34.17
2022-08-25T19:26:17.281Z,20.23
2022-08-25T19:29:10.308Z,16.48
2022-08-25T19:31:57.333Z,14.38
2022-08-25T19:34:51.332Z,24.75
2022-08-25T19:37:38.081Z,18.27
2022-08-25T19:40:26.823Z,20.58
2022-08-25T19:43:13.670Z,11.18
2022-08-25T19:46:03.760Z,17.08
2022-08-25T19:48:50.688Z,11.65
2022-08-25T19:51:40.243Z,13.57
2022-08-25T19:54:32.533Z,7.85
2022-08-25T19:57:28.372Z,10.90
2022-08-25T20:00:29.193Z,17.08
2022-08-25T20:03:15.048Z,9.52
2022-08-25T20:06:01.413Z,11.00
2022-08-25T20:08:47.227Z,9.25
2022-08-25T20:11:44.733Z,10.48
2022-08-25T20:14:32.619Z,8.73
2022-08-25T20:17:24.522Z,14.15
2022-08-25T20:23:18.974Z,9.10
2022-08-25T20:26:04.578Z,10.35
2022-08-25T20:28:50.069Z,10.57
2022-08-25T20:31:36.091Z,11.35
2022-08-25T20:34:22.117Z,21.80
2022-08-25T20:37:08.980Z,12.57
2022-08-25T20:39:55.123Z,10.05
2022-08-25T20:42:43.388Z,13.07
2022-08-25T20:45:31.825Z,13.38
2022-08-25T20:48:17.944Z,11.13
2022-08-25T20:51:09.899Z,13.48
2022-08-25T20:53:56.837Z,10.43
2022-08-25T20:56:43.372Z,7.82
2022-08-25T20:59:29.332Z,11.63
2022-08-25T21:02:15.194Z,13.32
2022-08-25T21:05:01.644Z,8.68
2022-08-25T21:07:48.931Z,6.25
2022-08-25T21:10:34.642Z,7.63
2022-08-25T21:13:21.357Z,13.45
2022-08-25T21:16:09.054Z,16.17
2022-08-25T21:18:55.565Z,12.95
2022-08-25T21:21:41.839Z,11.23
2022-08-25T21:24:29.312Z,9.98
2022-08-25T21:27:15.099Z,17.13
2022-08-25T21:30:00.653Z,11.35
2022-08-25T21:32:53.794Z,10.50
2022-08-25T21:35:41.363Z,13.68
2022-08-25T21:38:29.360Z,12.52
2022-08-25T21:41:21.242Z,11.63
2022-08-25T21:44:07.880Z,8.77
2022-08-25T21:46:53.820Z,8.25
2022-08-25T21:49:40.229Z,8.50
2022-08-25T21:52:25.675Z,7.32
2022-08-25T21:55:15.991Z,9.63
2022-08-25T21:58:02.117Z,10.10
2022-08-25T22:00:48.013Z,10.13
2022-08-25T22:03:35.074Z,4.45
2022-08-25T22:06:23.349Z,8.93
2022-08-25T22:09:11.305Z,9.52
2022-08-25T22:11:57.092Z,6.95
2022-08-25T22:14:44.457Z,9.50
2022-08-25T22:17:30.261Z,12.80
2022-08-25T22:20:17.265Z,9.45
2022-08-25T22:23:03.273Z,11.88
2022-08-25T22:25:49.856Z,6.53
2022-08-25T22:28:36.297Z,9.82
2022-08-25T22:31:22.610Z,5.63
2022-08-25T22:34:08.585Z,9.82
2022-08-25T22:36:59.374Z,7.93
2022-08-25T22:39:46.532Z,7.47
2022-08-25T22:42:32.694Z,7.18
2022-08-25T22:45:19.115Z,5.97
2022-08-25T22:48:06.560Z,10.55
2022-08-25T22:50:52.257Z,9.85
2022-08-25T22:53:40.181Z,12.50
2022-08-25T22:56:32.984Z,6.32
2022-08-25T22:59:19.163Z,9.40
2022-08-25T23:02:05.385Z,11.60
2022-08-25T23:04:52.537Z,10.77
2022-08-25T23:07:41.816Z,12.80
2022-08-25T23:10:27.807Z,5.78
2022-08-25T23:13:31.017Z,5.93
2022-08-25T23:16:18.963Z,5.80
2022-08-25T23:19:05.175Z,10.80
2022-08-25T23:22:09.500Z,9.20
2022-08-25T23:24:56.857Z,9.70
2022-08-25T23:27:43.152Z,10.30
2022-08-25T23:30:30.390Z,5.90
2022-08-25T23:33:18.707Z,10.25
2022-08-25T23:36:08.720Z,10.93
2022-08-25T23:38:56.944Z,7.53
2022-08-25T23:41:42.589Z,5.85
2022-08-25T23:44:28.861Z,9.90
2022-08-25T23:47:15.075Z,7.95
2022-08-25T23:50:00.934Z,13.85
2022-08-25T23:52:46.989Z,13.60
2022-08-25T23:55:33.652Z,9.50
2022-08-25T23:58:19.697Z,8.77
